createdAt,value
2023-05-05T00:03:00.094Z,17.9
2023-05-05T00:18:00.087Z,17.6
2023-05-05T00:33:00.055Z,17.3
2023-05-05T00:48:00.018Z,17.1
2023-05-05T01:03:00.093Z,16.8
2023-05-05T01:18:00.073Z,16.6
2023-05-05T01:33:00.019Z,16.6
2023-05-05T01:48:00.110Z,16.4
2023-05-05T02:03:00.186Z,16.1
2023-05-05T02:18:00.056Z,15.7
2023-05-05T02:33:00.036Z,15.6
2023-05-05T02:48:00.049Z,15.4
2023-05-05T03:03:00.028Z,15.2
2023-05-05T03:18:00.073Z,15
2023-05-05T03:33:00.061Z,14.8
2023-05-05T03:48:00.048Z,14.6
2023-05-05T04:03:00.082Z,14.4
2023-05-05T04:18:00.223Z,14.2
2023-05-05T04:33:00.055Z,14.2
2023-05-05T04:48:00.041Z,14.1
2023-05-05T05:03:00.056Z,14.2
2023-05-05T05:18:00.021Z,14.3
2023-05-05T05:33:00.042Z,14.4
2023-05-05T05:48:00.040Z,14.8
2023-05-05T06:03:00.096Z,15.1
2023-05-05T06:18:00.057Z,15.6
2023-05-05T06:33:00.195Z,15.8
2023-05-05T06:48:00.112Z,15.9
2023-05-05T07:03:00.071Z,16.3
2023-05-05T07:18:00.073Z,16
2023-05-05T07:33:00.032Z,16.2
2023-05-05T07:48:00.047Z,16.8
2023-05-05T08:03:00.058Z,17.1
2023-05-05T08:18:00.044Z,17.4
2023-05-05T08:33:00.066Z,18.1
2023-05-05T08:48:00.087Z,18.1
2023-05-05T09:03:00.241Z,18.3
2023-05-05T09:18:00.023Z,18.5
2023-05-05T09:33:00.017Z,18.6
2023-05-05T09:48:00.668Z,19.1
2023-05-05T10:03:00.080Z,18.8
2023-05-05T10:18:07.262Z,18.2
2023-05-05T10:48:00.080Z,15.4
2023-05-05T11:03:00.056Z,15.8
2023-05-05T11:18:00.052Z,16.2
2023-05-05T11:33:00.063Z,16.9
2023-05-05T11:48:00.076Z,17.6
2023-05-05T12:03:00.055Z,18.1
2023-05-05T12:18:02.284Z,18.6
2023-05-05T12:33:00.031Z,18.8
2023-05-05T12:48:00.022Z,18.9
2023-05-05T13:03:00.082Z,18.8
2023-05-05T13:18:00.074Z,17.8
2023-05-05T13:33:00.058Z,17.7
2023-05-05T13:48:00.058Z,16.1
2023-05-05T14:03:00.027Z,15
2023-05-05T14:18:00.050Z,15.2
2023-05-05T14:33:00.109Z,16
2023-05-05T14:48:00.028Z,17.4
2023-05-05T15:03:00.040Z,18
2023-05-05T15:18:00.059Z,19.2
2023-05-05T15:33:00.066Z,20.1
2023-05-05T15:48:00.074Z,18.9
2023-05-05T16:03:00.137Z,19.6
2023-05-05T16:18:00.058Z,18.4
2023-05-05T16:33:00.046Z,19.7
2023-05-05T16:48:00.030Z,17.8
2023-05-05T17:03:00.050Z,16.5
2023-05-05T17:18:00.001Z,17.1
2023-05-05T17:33:00.088Z,17.8
2023-05-05T17:48:00.057Z,16.9
2023-05-05T18:03:00.032Z,16.3
2023-05-05T18:18:00.041Z,15.9
2023-05-05T18:33:00.039Z,15.2
2023-05-05T18:48:00.041Z,15.2
2023-05-05T19:03:00.038Z,14.8
2023-05-05T19:18:00.008Z,14.3
2023-05-05T19:33:00.072Z,14.2
2023-05-05T19:48:00.038Z,14.2
2023-05-05T20:03:00.081Z,14
2023-05-05T20:18:00.110Z,13.9
2023-05-05T20:33:00.017Z,13.6
2023-05-05T20:48:00.046Z,13.2
2023-05-05T21:03:00.044Z,13.4
2023-05-05T21:18:00.007Z,13.4
2023-05-05T21:33:00.104Z,13.3
2023-05-05T21:48:00.112Z,13.3
2023-05-05T22:03:00.083Z,13.2
2023-05-05T22:18:00.035Z,13.1
2023-05-05T22:33:00.025Z,12.8
2023-05-05T22:48:00.185Z,12.8
2023-05-05T23:03:00.018Z,12.7
2023-05-05T23:18:00.101Z,12.6
2023-05-05T23:33:00.047Z,12.8
2023-05-05T23:48:00.081Z,12.2
